KSGH/SGH METAR and TAF weather

Enter ICAO airport designator
Station Type Date Time Source
KSGH METAR 2019/02/16 02:56 UTC NOAA

KSGH 160256Z AUTO 32007KT 10SM CLR M03/M07 A2996 RMK AO2 SLP158 T10331072 51018


Station Type Date Time Source
KSGH Decoded METAR 2019/02/16 02:56 UTC NOAA

Springfield, Springfield-Beckley Municipal Airport, OH, United States (KSGH) 39-50-25N 083-50-24W
Feb 15, 2019 - 09:56 PM EST / 2019.02.16 0256 UTC
Wind: from the NW (320 degrees) at 8 MPH (7 KT):0
Visibility: 10 mile(s):0
Sky conditions: clear
Temperature: 26.1 F (-3.3 C)
Windchill: 17 F (-8 C):1
Dew Point: 19.0 F (-7.2 C)
Relative Humidity: 74%
Pressure (altimeter): 29.96 in. Hg (1014 hPa)
Pressure tendency: 0.05 inches (1.8 hPa) higher than three hours ago
ob: KSGH 160256Z AUTO 32007KT 10SM CLR M03/M07 A2996 RMK AO2 SLP158 T10331072 51018
cycle: 3

Station Type Date Time Source
KSGH TAF UTC NOAA

Error!


Example: see airport list